sensor_id;sensor_type;location;lat;lon;timestamp;P1;durP1;ratioP1;P2;durP2;ratioP2
7104;SDS011;3594;42.152;24.714;2023-03-24T00:02:11;16.33;;;8.83;;
7104;SDS011;3594;42.152;24.714;2023-03-24T00:04:37;17.17;;;7.73;;
7104;SDS011;3594;42.152;24.714;2023-03-24T00:07:06;19.27;;;9.20;;
7104;SDS011;3594;42.152;24.714;2023-03-24T00:09:32;11.90;;;6.60;;
7104;SDS011;3594;42.152;24.714;2023-03-24T00:11:57;17.37;;;8.23;;
7104;SDS011;3594;42.152;24.714;2023-03-24T00:14:23;15.57;;;8.60;;
7104;SDS011;3594;42.152;24.714;2023-03-24T00:16:49;14.47;;;7.53;;
7104;SDS011;3594;42.152;24.714;2023-03-24T00:19:16;14.60;;;7.93;;
7104;SDS011;3594;42.152;24.714;2023-03-24T00:21:44;16.63;;;8.20;;
7104;SDS011;3594;42.152;24.714;2023-03-24T00:24:10;16.23;;;8.73;;
7104;SDS011;3594;42.152;24.714;2023-03-24T00:26:37;15.53;;;8.27;;
7104;SDS011;3594;42.152;24.714;2023-03-24T00:29:04;14.10;;;7.50;;
7104;SDS011;3594;42.152;24.714;2023-03-24T00:31:32;12.57;;;7.73;;
7104;SDS011;3594;42.152;24.714;2023-03-24T00:34:03;17.30;;;8.27;;
7104;SDS011;3594;42.152;24.714;2023-03-24T00:36:31;11.53;;;7.33;;
7104;SDS011;3594;42.152;24.714;2023-03-24T00:38:57;15.63;;;8.87;;
7104;SDS011;3594;42.152;24.714;2023-03-24T00:41:23;13.60;;;7.97;;
7104;SDS011;3594;42.152;24.714;2023-03-24T00:43:52;13.77;;;8.03;;
7104;SDS011;3594;42.152;24.714;2023-03-24T00:46:20;16.87;;;8.77;;
7104;SDS011;3594;42.152;24.714;2023-03-24T00:48:52;13.87;;;7.77;;
7104;SDS011;3594;42.152;24.714;2023-03-24T00:51:30;14.63;;;7.27;;
7104;SDS011;3594;42.152;24.714;2023-03-24T00:54:00;15.03;;;8.53;;
7104;SDS011;3594;42.152;24.714;2023-03-24T00:56:26;12.83;;;8.00;;
7104;SDS011;3594;42.152;24.714;2023-03-24T00:58:53;13.80;;;8.70;;
7104;SDS011;3594;42.152;24.714;2023-03-24T01:01:22;13.50;;;8.07;;
7104;SDS011;3594;42.152;24.714;2023-03-24T01:03:53;13.97;;;8.17;;
7104;SDS011;3594;42.152;24.714;2023-03-24T01:06:20;16.37;;;7.77;;
7104;SDS011;3594;42.152;24.714;2023-03-24T01:08:47;19.43;;;8.47;;
7104;SDS011;3594;42.152;24.714;2023-03-24T01:11:14;19.13;;;8.90;;
7104;SDS011;3594;42.152;24.714;2023-03-24T01:13:40;16.47;;;7.60;;
7104;SDS011;3594;42.152;24.714;2023-03-24T01:16:06;13.77;;;8.33;;
7104;SDS011;3594;42.152;24.714;2023-03-24T01:18:32;15.33;;;8.10;;
7104;SDS011;3594;42.152;24.714;2023-03-24T01:20:59;14.53;;;8.00;;
7104;SDS011;3594;42.152;24.714;2023-03-24T01:23:25;11.77;;;7.50;;
7104;SDS011;3594;42.152;24.714;2023-03-24T01:25:51;21.63;;;7.47;;
7104;SDS011;3594;42.152;24.714;2023-03-24T01:28:19;14.07;;;8.10;;
7104;SDS011;3594;42.152;24.714;2023-03-24T01:30:48;16.50;;;8.57;;
7104;SDS011;3594;42.152;24.714;2023-03-24T01:33:17;14.90;;;9.20;;
7104;SDS011;3594;42.152;24.714;2023-03-24T01:35:43;13.07;;;8.17;;
7104;SDS011;3594;42.152;24.714;2023-03-24T01:38:09;11.67;;;7.70;;
7104;SDS011;3594;42.152;24.714;2023-03-24T01:40:37;13.23;;;6.83;;
7104;SDS011;3594;42.152;24.714;2023-03-24T01:43:05;17.40;;;8.40;;
7104;SDS011;3594;42.152;24.714;2023-03-24T01:50:33;11.27;;;6.57;;
7104;SDS011;3594;42.152;24.714;2023-03-24T01:52:59;11.53;;;7.10;;
7104;SDS011;3594;42.152;24.714;2023-03-24T01:55:25;10.83;;;7.17;;
7104;SDS011;3594;42.152;24.714;2023-03-24T01:57:53;15.80;;;7.87;;
7104;SDS011;3594;42.152;24.714;2023-03-24T02:00:22;10.37;;;6.47;;
7104;SDS011;3594;42.152;24.714;2023-03-24T02:02:49;14.40;;;7.73;;
7104;SDS011;3594;42.152;24.714;2023-03-24T02:05:25;11.03;;;6.93;;
7104;SDS011;3594;42.152;24.714;2023-03-24T02:10:29;12.13;;;6.83;;
7104;SDS011;3594;42.152;24.714;2023-03-24T02:12:57;16.70;;;7.77;;
7104;SDS011;3594;42.152;24.714;2023-03-24T02:15:22;13.77;;;7.50;;
7104;SDS011;3594;42.152;24.714;2023-03-24T02:26:47;10.40;;;6.23;;
7104;SDS011;3594;42.152;24.714;2023-03-24T02:30:10;9.40;;;5.80;;
7104;SDS011;3594;42.152;24.714;2023-03-24T02:46:41;14.63;;;8.10;;
7104;SDS011;3594;42.152;24.714;2023-03-24T02:49:20;11.03;;;5.73;;
7104;SDS011;3594;42.152;24.714;2023-03-24T02:51:51;9.77;;;6.50;;
7104;SDS011;3594;42.152;24.714;2023-03-24T02:59:53;11.80;;;6.30;;
7104;SDS011;3594;42.152;24.714;2023-03-24T03:02:28;13.37;;;6.63;;
7104;SDS011;3594;42.152;24.714;2023-03-24T03:05:00;9.73;;;5.97;;
7104;SDS011;3594;42.152;24.714;2023-03-24T03:07:31;10.47;;;6.27;;
7104;SDS011;3594;42.152;24.714;2023-03-24T03:10:07;9.23;;;6.27;;
7104;SDS011;3594;42.152;24.714;2023-03-24T03:12:39;12.10;;;6.70;;
7104;SDS011;3594;42.152;24.714;2023-03-24T03:15:13;17.00;;;7.10;;
7104;SDS011;3594;42.152;24.714;2023-03-24T03:18:04;12.20;;;6.97;;
7104;SDS011;3594;42.152;24.714;2023-03-24T03:20:44;8.73;;;4.90;;
7104;SDS011;3594;42.152;24.714;2023-03-24T03:23:19;8.63;;;6.40;;
7104;SDS011;3594;42.152;24.714;2023-03-24T03:25:54;12.87;;;7.17;;
7104;SDS011;3594;42.152;24.714;2023-03-24T03:28:29;8.83;;;5.60;;
7104;SDS011;3594;42.152;24.714;2023-03-24T03:30:58;8.53;;;5.63;;
7104;SDS011;3594;42.152;24.714;2023-03-24T03:33:51;12.60;;;6.33;;
7104;SDS011;3594;42.152;24.714;2023-03-24T03:41:35;11.13;;;6.17;;
7104;SDS011;3594;42.152;24.714;2023-03-24T03:44:02;11.03;;;5.43;;
7104;SDS011;3594;42.152;24.714;2023-03-24T03:46:27;12.80;;;5.50;;
7104;SDS011;3594;42.152;24.714;2023-03-24T03:48:53;9.80;;;5.67;;
7104;SDS011;3594;42.152;24.714;2023-03-24T03:51:18;9.67;;;5.83;;
7104;SDS011;3594;42.152;24.714;2023-03-24T03:56:15;9.60;;;6.07;;
7104;SDS011;3594;42.152;24.714;2023-03-24T03:58:43;9.57;;;5.07;;
7104;SDS011;3594;42.152;24.714;2023-03-24T04:01:11;12.47;;;5.80;;
7104;SDS011;3594;42.152;24.714;2023-03-24T04:20:19;7.63;;;4.53;;
7104;SDS011;3594;42.152;24.714;2023-03-24T04:28:16;8.30;;;4.57;;
7104;SDS011;3594;42.152;24.714;2023-03-24T04:33:48;10.03;;;5.27;;
7104;SDS011;3594;42.152;24.714;2023-03-24T04:36:27;9.00;;;5.53;;
7104;SDS011;3594;42.152;24.714;2023-03-24T04:38:53;6.37;;;5.53;;
7104;SDS011;3594;42.152;24.714;2023-03-24T04:41:21;10.33;;;5.77;;
7104;SDS011;3594;42.152;24.714;2023-03-24T04:43:49;7.17;;;4.80;;
7104;SDS011;3594;42.152;24.714;2023-03-24T04:46:19;5.67;;;4.40;;
7104;SDS011;3594;42.152;24.714;2023-03-24T04:48:45;10.10;;;5.90;;
7104;SDS011;3594;42.152;24.714;2023-03-24T04:51:15;6.07;;;4.20;;
7104;SDS011;3594;42.152;24.714;2023-03-24T04:53:42;8.37;;;5.07;;
7104;SDS011;3594;42.152;24.714;2023-03-24T04:58:42;7.10;;;5.43;;
7104;SDS011;3594;42.152;24.714;2023-03-24T05:01:07;9.17;;;5.30;;
7104;SDS011;3594;42.152;24.714;2023-03-24T05:03:33;9.37;;;6.00;;
7104;SDS011;3594;42.152;24.714;2023-03-24T05:06:02;7.50;;;4.87;;
7104;SDS011;3594;42.152;24.714;2023-03-24T05:08:30;10.07;;;6.27;;
7104;SDS011;3594;42.152;24.714;2023-03-24T05:10:56;11.03;;;5.20;;
7104;SDS011;3594;42.152;24.714;2023-03-24T05:13:22;9.23;;;5.13;;
7104;SDS011;3594;42.152;24.714;2023-03-24T05:15:47;11.90;;;5.53;;
7104;SDS011;3594;42.152;24.714;2023-03-24T05:18:13;11.90;;;6.10;;
7104;SDS011;3594;42.152;24.714;2023-03-24T05:20:38;11.87;;;6.67;;
7104;SDS011;3594;42.152;24.714;2023-03-24T05:23:04;9.57;;;5.63;;
7104;SDS011;3594;42.152;24.714;2023-03-24T05:25:29;9.50;;;6.07;;
7104;SDS011;3594;42.152;24.714;2023-03-24T05:27:55;12.33;;;6.27;;
7104;SDS011;3594;42.152;24.714;2023-03-24T05:30:20;8.77;;;5.60;;
7104;SDS011;3594;42.152;24.714;2023-03-24T05:32:46;7.10;;;5.73;;
7104;SDS011;3594;42.152;24.714;2023-03-24T05:35:11;10.43;;;6.07;;
7104;SDS011;3594;42.152;24.714;2023-03-24T05:37:37;11.43;;;5.97;;
7104;SDS011;3594;42.152;24.714;2023-03-24T05:40:02;13.20;;;5.30;;
7104;SDS011;3594;42.152;24.714;2023-03-24T05:42:28;13.50;;;6.57;;
7104;SDS011;3594;42.152;24.714;2023-03-24T05:44:53;8.27;;;5.83;;
7104;SDS011;3594;42.152;24.714;2023-03-24T05:47:19;8.90;;;4.87;;
7104;SDS011;3594;42.152;24.714;2023-03-24T05:49:45;9.07;;;5.50;;
7104;SDS011;3594;42.152;24.714;2023-03-24T05:52:11;7.77;;;4.93;;
7104;SDS011;3594;42.152;24.714;2023-03-24T05:54:39;10.73;;;5.67;;
7104;SDS011;3594;42.152;24.714;2023-03-24T05:57:05;8.17;;;5.27;;
7104;SDS011;3594;42.152;24.714;2023-03-24T05:59:34;9.67;;;6.17;;
7104;SDS011;3594;42.152;24.714;2023-03-24T06:01:59;12.33;;;6.80;;
7104;SDS011;3594;42.152;24.714;2023-03-24T06:04:26;15.00;;;8.10;;
7104;SDS011;3594;42.152;24.714;2023-03-24T06:06:56;8.03;;;5.03;;
7104;SDS011;3594;42.152;24.714;2023-03-24T06:09:23;12.03;;;7.30;;
7104;SDS011;3594;42.152;24.714;2023-03-24T06:12:00;11.10;;;6.07;;
7104;SDS011;3594;42.152;24.714;2023-03-24T06:14:26;16.20;;;6.03;;
7104;SDS011;3594;42.152;24.714;2023-03-24T06:16:51;13.10;;;6.13;;
7104;SDS011;3594;42.152;24.714;2023-03-24T06:19:17;11.90;;;6.10;;
7104;SDS011;3594;42.152;24.714;2023-03-24T06:21:46;11.20;;;6.10;;
7104;SDS011;3594;42.152;24.714;2023-03-24T06:24:14;10.23;;;5.57;;
7104;SDS011;3594;42.152;24.714;2023-03-24T06:26:40;10.97;;;5.83;;
7104;SDS011;3594;42.152;24.714;2023-03-24T06:29:09;11.60;;;6.90;;
7104;SDS011;3594;42.152;24.714;2023-03-24T06:31:35;11.77;;;5.33;;
7104;SDS011;3594;42.152;24.714;2023-03-24T06:34:01;7.90;;;5.30;;
7104;SDS011;3594;42.152;24.714;2023-03-24T06:36:28;9.83;;;6.23;;
7104;SDS011;3594;42.152;24.714;2023-03-24T06:38:53;10.32;;;6.05;;
7104;SDS011;3594;42.152;24.714;2023-03-24T06:41:19;10.80;;;5.85;;
7104;SDS011;3594;42.152;24.714;2023-03-24T06:43:45;8.40;;;5.32;;
7104;SDS011;3594;42.152;24.714;2023-03-24T06:46:10;10.45;;;5.88;;
7104;SDS011;3594;42.152;24.714;2023-03-24T06:48:36;10.52;;;5.80;;
7104;SDS011;3594;42.152;24.714;2023-03-24T06:51:02;13.05;;;6.22;;
7104;SDS011;3594;42.152;24.714;2023-03-24T06:53:28;8.55;;;5.13;;
7104;SDS011;3594;42.152;24.714;2023-03-24T06:55:53;13.70;;;5.88;;
7104;SDS011;3594;42.152;24.714;2023-03-24T06:58:19;12.13;;;5.97;;
7104;SDS011;3594;42.152;24.714;2023-03-24T07:00:44;9.30;;;5.10;;
7104;SDS011;3594;42.152;24.714;2023-03-24T07:03:11;10.15;;;6.03;;
7104;SDS011;3594;42.152;24.714;2023-03-24T07:05:41;11.90;;;5.43;;
7104;SDS011;3594;42.152;24.714;2023-03-24T07:08:08;9.13;;;5.57;;
7104;SDS011;3594;42.152;24.714;2023-03-24T07:10:36;8.52;;;4.78;;
7104;SDS011;3594;42.152;24.714;2023-03-24T07:13:03;10.63;;;5.22;;
7104;SDS011;3594;42.152;24.714;2023-03-24T07:15:29;13.40;;;5.38;;
7104;SDS011;3594;42.152;24.714;2023-03-24T07:17:55;11.82;;;4.80;;
7104;SDS011;3594;42.152;24.714;2023-03-24T07:20:21;9.82;;;5.03;;
7104;SDS011;3594;42.152;24.714;2023-03-24T07:22:46;6.72;;;4.20;;
7104;SDS011;3594;42.152;24.714;2023-03-24T07:25:12;5.10;;;3.83;;
7104;SDS011;3594;42.152;24.714;2023-03-24T07:27:38;7.90;;;4.72;;
7104;SDS011;3594;42.152;24.714;2023-03-24T07:30:04;11.00;;;5.40;;
7104;SDS011;3594;42.152;24.714;2023-03-24T07:32:31;13.43;;;5.13;;
7104;SDS011;3594;42.152;24.714;2023-03-24T07:35:03;9.95;;;5.07;;
7104;SDS011;3594;42.152;24.714;2023-03-24T07:37:32;10.60;;;5.50;;
7104;SDS011;3594;42.152;24.714;2023-03-24T07:39:57;8.82;;;5.22;;
7104;SDS011;3594;42.152;24.714;2023-03-24T07:42:23;12.10;;;6.07;;
7104;SDS011;3594;42.152;24.714;2023-03-24T07:44:49;9.40;;;5.20;;
7104;SDS011;3594;42.152;24.714;2023-03-24T07:47:15;11.18;;;5.38;;
7104;SDS011;3594;42.152;24.714;2023-03-24T07:49:41;7.82;;;4.60;;
7104;SDS011;3594;42.152;24.714;2023-03-24T07:52:07;7.85;;;4.95;;
7104;SDS011;3594;42.152;24.714;2023-03-24T07:54:32;7.55;;;4.63;;
7104;SDS011;3594;42.152;24.714;2023-03-24T07:56:58;10.10;;;5.80;;
7104;SDS011;3594;42.152;24.714;2023-03-24T07:59:24;12.55;;;5.35;;
7104;SDS011;3594;42.152;24.714;2023-03-24T08:01:50;11.18;;;6.35;;
7104;SDS011;3594;42.152;24.714;2023-03-24T08:04:15;11.82;;;5.97;;
7104;SDS011;3594;42.152;24.714;2023-03-24T08:06:44;9.38;;;5.38;;
7104;SDS011;3594;42.152;24.714;2023-03-24T08:09:10;12.63;;;6.25;;
7104;SDS011;3594;42.152;24.714;2023-03-24T08:11:36;11.48;;;5.78;;
7104;SDS011;3594;42.152;24.714;2023-03-24T08:14:02;11.20;;;6.22;;
7104;SDS011;3594;42.152;24.714;2023-03-24T08:16:27;11.50;;;5.95;;
7104;SDS011;3594;42.152;24.714;2023-03-24T08:18:53;12.70;;;7.13;;
7104;SDS011;3594;42.152;24.714;2023-03-24T08:21:22;9.48;;;5.68;;
7104;SDS011;3594;42.152;24.714;2023-03-24T08:23:48;11.20;;;6.35;;
7104;SDS011;3594;42.152;24.714;2023-03-24T08:26:13;10.85;;;6.13;;
7104;SDS011;3594;42.152;24.714;2023-03-24T08:28:39;15.15;;;6.65;;
7104;SDS011;3594;42.152;24.714;2023-03-24T08:31:05;11.70;;;6.22;;
7104;SDS011;3594;42.152;24.714;2023-03-24T08:33:31;15.23;;;6.88;;
7104;SDS011;3594;42.152;24.714;2023-03-24T08:35:56;14.45;;;7.57;;
7104;SDS011;3594;42.152;24.714;2023-03-24T08:38:22;17.13;;;7.93;;
7104;SDS011;3594;42.152;24.714;2023-03-24T08:40:54;10.93;;;6.20;;
7104;SDS011;3594;42.152;24.714;2023-03-24T08:43:20;12.57;;;6.57;;
7104;SDS011;3594;42.152;24.714;2023-03-24T08:45:47;12.88;;;7.38;;
7104;SDS011;3594;42.152;24.714;2023-03-24T08:48:12;14.27;;;6.20;;
7104;SDS011;3594;42.152;24.714;2023-03-24T08:50:39;13.65;;;6.65;;
7104;SDS011;3594;42.152;24.714;2023-03-24T08:53:05;12.15;;;6.68;;
7104;SDS011;3594;42.152;24.714;2023-03-24T08:55:32;13.23;;;7.07;;
7104;SDS011;3594;42.152;24.714;2023-03-24T08:57:58;12.23;;;7.05;;
7104;SDS011;3594;42.152;24.714;2023-03-24T09:00:24;16.50;;;7.53;;
7104;SDS011;3594;42.152;24.714;2023-03-24T09:02:52;12.90;;;6.88;;
7104;SDS011;3594;42.152;24.714;2023-03-24T09:05:20;14.18;;;7.60;;
7104;SDS011;3594;42.152;24.714;2023-03-24T09:07:47;14.98;;;7.65;;
7104;SDS011;3594;42.152;24.714;2023-03-24T09:10:14;10.85;;;6.57;;
7104;SDS011;3594;42.152;24.714;2023-03-24T09:12:40;17.73;;;7.20;;
7104;SDS011;3594;42.152;24.714;2023-03-24T09:15:07;11.68;;;6.32;;
7104;SDS011;3594;42.152;24.714;2023-03-24T09:17:34;11.07;;;6.85;;
7104;SDS011;3594;42.152;24.714;2023-03-24T09:20:00;11.13;;;6.55;;
7104;SDS011;3594;42.152;24.714;2023-03-24T09:22:25;14.32;;;6.38;;
7104;SDS011;3594;42.152;24.714;2023-03-24T09:24:51;11.63;;;6.38;;
7104;SDS011;3594;42.152;24.714;2023-03-24T09:27:16;11.60;;;6.07;;
7104;SDS011;3594;42.152;24.714;2023-03-24T09:29:42;11.70;;;6.18;;
7104;SDS011;3594;42.152;24.714;2023-03-24T09:32:08;11.98;;;5.88;;
7104;SDS011;3594;42.152;24.714;2023-03-24T09:34:33;11.13;;;6.15;;
7104;SDS011;3594;42.152;24.714;2023-03-24T09:37:01;13.93;;;6.90;;
7104;SDS011;3594;42.152;24.714;2023-03-24T09:39:26;10.18;;;6.20;;
7104;SDS011;3594;42.152;24.714;2023-03-24T09:41:53;12.35;;;6.10;;
7104;SDS011;3594;42.152;24.714;2023-03-24T09:47:24;10.68;;;5.78;;
7104;SDS011;3594;42.152;24.714;2023-03-24T09:49:56;11.00;;;6.65;;
7104;SDS011;3594;42.152;24.714;2023-03-24T09:52:34;9.52;;;5.38;;
7104;SDS011;3594;42.152;24.714;2023-03-24T09:55:04;11.65;;;6.18;;
7104;SDS011;3594;42.152;24.714;2023-03-24T09:57:35;11.20;;;5.65;;
7104;SDS011;3594;42.152;24.714;2023-03-24T10:02:47;7.47;;;4.75;;
7104;SDS011;3594;42.152;24.714;2023-03-24T10:05:14;8.93;;;4.75;;
7104;SDS011;3594;42.152;24.714;2023-03-24T10:08:08;9.27;;;5.00;;
7104;SDS011;3594;42.152;24.714;2023-03-24T10:10:56;8.45;;;5.18;;
7104;SDS011;3594;42.152;24.714;2023-03-24T10:13:36;10.38;;;5.70;;
7104;SDS011;3594;42.152;24.714;2023-03-24T10:18:52;6.95;;;4.75;;
7104;SDS011;3594;42.152;24.714;2023-03-24T10:21:20;12.20;;;5.55;;
7104;SDS011;3594;42.152;24.714;2023-03-24T10:23:53;9.75;;;6.05;;
7104;SDS011;3594;42.152;24.714;2023-03-24T10:26:30;11.07;;;5.88;;
7104;SDS011;3594;42.152;24.714;2023-03-24T10:29:27;10.55;;;5.93;;
7104;SDS011;3594;42.152;24.714;2023-03-24T10:34:40;9.30;;;5.53;;
7104;SDS011;3594;42.152;24.714;2023-03-24T10:37:09;10.88;;;6.20;;
7104;SDS011;3594;42.152;24.714;2023-03-24T10:39:35;8.73;;;5.28;;
7104;SDS011;3594;42.152;24.714;2023-03-24T10:42:01;13.27;;;5.32;;
7104;SDS011;3594;42.152;24.714;2023-03-24T10:44:28;10.98;;;5.65;;
7104;SDS011;3594;42.152;24.714;2023-03-24T10:46:55;10.60;;;5.30;;
7104;SDS011;3594;42.152;24.714;2023-03-24T10:49:23;10.88;;;5.70;;
7104;SDS011;3594;42.152;24.714;2023-03-24T10:51:50;10.07;;;5.57;;
7104;SDS011;3594;42.152;24.714;2023-03-24T10:54:21;9.02;;;5.15;;
7104;SDS011;3594;42.152;24.714;2023-03-24T10:56:49;9.13;;;4.57;;
7104;SDS011;3594;42.152;24.714;2023-03-24T11:04:33;9.52;;;5.32;;
7104;SDS011;3594;42.152;24.714;2023-03-24T11:07:15;8.80;;;4.85;;
7104;SDS011;3594;42.152;24.714;2023-03-24T11:09:46;11.27;;;4.90;;
7104;SDS011;3594;42.152;24.714;2023-03-24T11:12:22;8.85;;;4.50;;
7104;SDS011;3594;42.152;24.714;2023-03-24T11:17:41;10.25;;;5.18;;
7104;SDS011;3594;42.152;24.714;2023-03-24T11:20:18;7.85;;;4.50;;
7104;SDS011;3594;42.152;24.714;2023-03-24T11:23:07;10.48;;;5.18;;
7104;SDS011;3594;42.152;24.714;2023-03-24T11:25:43;9.13;;;4.90;;
7104;SDS011;3594;42.152;24.714;2023-03-24T11:28:15;9.35;;;5.05;;
7104;SDS011;3594;42.152;24.714;2023-03-24T11:30:46;9.15;;;3.95;;
7104;SDS011;3594;42.152;24.714;2023-03-24T11:33:16;8.77;;;4.45;;
7104;SDS011;3594;42.152;24.714;2023-03-24T11:35:49;7.57;;;4.28;;
7104;SDS011;3594;42.152;24.714;2023-03-24T11:38:16;7.85;;;4.50;;
7104;SDS011;3594;42.152;24.714;2023-03-24T11:41:01;11.38;;;5.00;;
7104;SDS011;3594;42.152;24.714;2023-03-24T11:43:30;8.18;;;4.45;;
7104;SDS011;3594;42.152;24.714;2023-03-24T11:45:59;7.22;;;4.25;;
7104;SDS011;3594;42.152;24.714;2023-03-24T11:48:38;7.78;;;4.50;;
7104;SDS011;3594;42.152;24.714;2023-03-24T11:51:27;10.48;;;4.93;;
7104;SDS011;3594;42.152;24.714;2023-03-24T11:53:58;6.68;;;4.32;;
7104;SDS011;3594;42.152;24.714;2023-03-24T11:56:46;6.82;;;4.25;;
7104;SDS011;3594;42.152;24.714;2023-03-24T12:13:24;7.78;;;4.55;;
7104;SDS011;3594;42.152;24.714;2023-03-24T12:18:44;7.55;;;3.53;;
7104;SDS011;3594;42.152;24.714;2023-03-24T12:26:41;5.93;;;3.40;;
7104;SDS011;3594;42.152;24.714;2023-03-24T12:34:38;6.10;;;3.55;;
7104;SDS011;3594;42.152;24.714;2023-03-24T12:39:56;5.53;;;3.22;;
7104;SDS011;3594;42.152;24.714;2023-03-24T12:42:44;5.03;;;3.20;;
7104;SDS011;3594;42.152;24.714;2023-03-24T12:53:38;5.30;;;3.58;;
7104;SDS011;3594;42.152;24.714;2023-03-24T12:56:14;4.60;;;3.03;;
7104;SDS011;3594;42.152;24.714;2023-03-24T13:01:27;5.57;;;3.25;;
7104;SDS011;3594;42.152;24.714;2023-03-24T13:04:10;5.28;;;3.20;;
7104;SDS011;3594;42.152;24.714;2023-03-24T13:12:34;5.78;;;3.53;;
7104;SDS011;3594;42.152;24.714;2023-03-24T13:17:31;6.63;;;3.95;;
7104;SDS011;3594;42.152;24.714;2023-03-24T13:20:01;4.50;;;3.13;;
7104;SDS011;3594;42.152;24.714;2023-03-24T13:22:31;3.67;;;2.72;;
7104;SDS011;3594;42.152;24.714;2023-03-24T13:25:00;4.13;;;2.65;;
7104;SDS011;3594;42.152;24.714;2023-03-24T13:27:27;5.68;;;3.17;;
7104;SDS011;3594;42.152;24.714;2023-03-24T13:33:06;4.85;;;2.70;;
7104;SDS011;3594;42.152;24.714;2023-03-24T13:40:49;3.78;;;2.47;;
7104;SDS011;3594;42.152;24.714;2023-03-24T13:43:17;5.22;;;2.97;;
7104;SDS011;3594;42.152;24.714;2023-03-24T13:45:49;5.00;;;2.78;;
7104;SDS011;3594;42.152;24.714;2023-03-24T13:48:59;5.07;;;2.72;;
7104;SDS011;3594;42.152;24.714;2023-03-24T13:51:34;4.90;;;2.67;;
7104;SDS011;3594;42.152;24.714;2023-03-24T13:54:05;3.95;;;2.50;;
7104;SDS011;3594;42.152;24.714;2023-03-24T13:59:29;4.47;;;3.03;;
7104;SDS011;3594;42.152;24.714;2023-03-24T14:02:19;3.97;;;2.78;;
7104;SDS011;3594;42.152;24.714;2023-03-24T14:08:08;4.15;;;2.65;;
7104;SDS011;3594;42.152;24.714;2023-03-24T14:12:50;8.05;;;3.08;;
7104;SDS011;3594;42.152;24.714;2023-03-24T14:15:18;5.63;;;3.35;;
7104;SDS011;3594;42.152;24.714;2023-03-24T14:17:52;6.78;;;3.42;;
7104;SDS011;3594;42.152;24.714;2023-03-24T14:20:33;5.53;;;3.25;;
7104;SDS011;3594;42.152;24.714;2023-03-24T14:23:03;4.95;;;3.10;;
7104;SDS011;3594;42.152;24.714;2023-03-24T14:25:29;5.90;;;3.58;;
7104;SDS011;3594;42.152;24.714;2023-03-24T14:39:43;2.83;;;2.40;;
7104;SDS011;3594;42.152;24.714;2023-03-24T14:41:51;2.95;;;2.33;;
7104;SDS011;3594;42.152;24.714;2023-03-24T14:47:17;4.10;;;2.60;;
7104;SDS011;3594;42.152;24.714;2023-03-24T14:49:45;4.43;;;2.67;;
7104;SDS011;3594;42.152;24.714;2023-03-24T14:54:53;5.10;;;2.80;;
7104;SDS011;3594;42.152;24.714;2023-03-24T14:57:27;4.47;;;2.85;;
7104;SDS011;3594;42.152;24.714;2023-03-24T15:00:00;5.25;;;3.03;;
7104;SDS011;3594;42.152;24.714;2023-03-24T15:02:49;3.85;;;2.47;;
7104;SDS011;3594;42.152;24.714;2023-03-24T15:05:29;6.00;;;2.80;;
7104;SDS011;3594;42.152;24.714;2023-03-24T15:11:03;3.55;;;2.58;;
7104;SDS011;3594;42.152;24.714;2023-03-24T15:13:42;3.53;;;2.38;;
7104;SDS011;3594;42.152;24.714;2023-03-24T15:18:35;4.10;;;2.50;;
7104;SDS011;3594;42.152;24.714;2023-03-24T15:21:20;3.83;;;2.65;;
7104;SDS011;3594;42.152;24.714;2023-03-24T15:26:45;4.32;;;2.42;;
7104;SDS011;3594;42.152;24.714;2023-03-24T15:29:11;3.22;;;2.17;;
7104;SDS011;3594;42.152;24.714;2023-03-24T15:31:37;3.63;;;2.25;;
7104;SDS011;3594;42.152;24.714;2023-03-24T15:34:04;3.42;;;2.40;;
7104;SDS011;3594;42.152;24.714;2023-03-24T15:36:52;3.65;;;2.25;;
7104;SDS011;3594;42.152;24.714;2023-03-24T15:39:19;5.00;;;2.58;;
7104;SDS011;3594;42.152;24.714;2023-03-24T15:41:50;3.30;;;2.67;;
7104;SDS011;3594;42.152;24.714;2023-03-24T15:44:17;3.65;;;2.33;;
7104;SDS011;3594;42.152;24.714;2023-03-24T15:46:45;3.80;;;2.65;;
7104;SDS011;3594;42.152;24.714;2023-03-24T15:49:22;4.15;;;2.55;;
7104;SDS011;3594;42.152;24.714;2023-03-24T15:51:56;4.35;;;2.80;;
7104;SDS011;3594;42.152;24.714;2023-03-24T15:57:02;3.95;;;2.67;;
7104;SDS011;3594;42.152;24.714;2023-03-24T16:02:17;4.63;;;2.78;;
7104;SDS011;3594;42.152;24.714;2023-03-24T16:04:45;4.13;;;2.38;;
7104;SDS011;3594;42.152;24.714;2023-03-24T16:07:32;3.60;;;2.55;;
7104;SDS011;3594;42.152;24.714;2023-03-24T16:09:59;3.20;;;2.20;;
7104;SDS011;3594;42.152;24.714;2023-03-24T16:12:36;3.20;;;2.42;;
7104;SDS011;3594;42.152;24.714;2023-03-24T16:15:03;4.22;;;2.33;;
7104;SDS011;3594;42.152;24.714;2023-03-24T16:17:32;4.20;;;2.20;;
7104;SDS011;3594;42.152;24.714;2023-03-24T16:19:58;5.40;;;2.38;;
7104;SDS011;3594;42.152;24.714;2023-03-24T16:22:24;2.60;;;2.03;;
7104;SDS011;3594;42.152;24.714;2023-03-24T16:24:49;3.65;;;2.03;;
7104;SDS011;3594;42.152;24.714;2023-03-24T16:27:15;2.70;;;2.10;;
7104;SDS011;3594;42.152;24.714;2023-03-24T16:29:41;2.75;;;2.13;;
7104;SDS011;3594;42.152;24.714;2023-03-24T16:32:07;3.53;;;2.20;;
7104;SDS011;3594;42.152;24.714;2023-03-24T16:34:33;2.80;;;2.15;;
7104;SDS011;3594;42.152;24.714;2023-03-24T16:37:00;3.63;;;2.28;;
7104;SDS011;3594;42.152;24.714;2023-03-24T16:39:27;3.45;;;2.40;;
7104;SDS011;3594;42.152;24.714;2023-03-24T16:41:53;3.30;;;2.25;;
7104;SDS011;3594;42.152;24.714;2023-03-24T16:44:20;4.03;;;2.42;;
7104;SDS011;3594;42.152;24.714;2023-03-24T16:46:46;3.05;;;2.20;;
7104;SDS011;3594;42.152;24.714;2023-03-24T16:49:17;4.65;;;2.78;;
7104;SDS011;3594;42.152;24.714;2023-03-24T16:51:44;3.53;;;2.50;;
7104;SDS011;3594;42.152;24.714;2023-03-24T16:54:10;2.95;;;2.25;;
7104;SDS011;3594;42.152;24.714;2023-03-24T16:56:36;5.05;;;2.88;;
7104;SDS011;3594;42.152;24.714;2023-03-24T16:59:03;5.93;;;3.05;;
7104;SDS011;3594;42.152;24.714;2023-03-24T17:01:36;3.35;;;2.40;;
7104;SDS011;3594;42.152;24.714;2023-03-24T17:04:21;5.68;;;2.88;;
7104;SDS011;3594;42.152;24.714;2023-03-24T17:06:49;3.97;;;2.70;;
7104;SDS011;3594;42.152;24.714;2023-03-24T17:09:18;10.05;;;2.50;;
7104;SDS011;3594;42.152;24.714;2023-03-24T17:11:50;4.28;;;2.60;;
7104;SDS011;3594;42.152;24.714;2023-03-24T17:14:21;4.90;;;2.70;;
7104;SDS011;3594;42.152;24.714;2023-03-24T17:16:47;5.78;;;2.90;;
7104;SDS011;3594;42.152;24.714;2023-03-24T17:19:17;4.40;;;2.88;;
7104;SDS011;3594;42.152;24.714;2023-03-24T17:21:49;6.55;;;3.17;;
7104;SDS011;3594;42.152;24.714;2023-03-24T17:24:22;6.60;;;2.53;;
7104;SDS011;3594;42.152;24.714;2023-03-24T17:26:48;4.15;;;2.78;;
7104;SDS011;3594;42.152;24.714;2023-03-24T17:29:13;3.33;;;2.47;;
7104;SDS011;3594;42.152;24.714;2023-03-24T17:31:39;5.35;;;3.08;;
7104;SDS011;3594;42.152;24.714;2023-03-24T17:34:09;4.70;;;3.05;;
7104;SDS011;3594;42.152;24.714;2023-03-24T17:36:37;3.85;;;2.80;;
7104;SDS011;3594;42.152;24.714;2023-03-24T17:39:03;5.32;;;3.13;;
7104;SDS011;3594;42.152;24.714;2023-03-24T17:41:29;4.30;;;2.97;;
7104;SDS011;3594;42.152;24.714;2023-03-24T17:43:55;4.90;;;3.03;;
7104;SDS011;3594;42.152;24.714;2023-03-24T17:46:20;6.40;;;3.55;;
7104;SDS011;3594;42.152;24.714;2023-03-24T17:48:46;5.00;;;2.63;;
7104;SDS011;3594;42.152;24.714;2023-03-24T17:51:11;8.02;;;3.22;;
7104;SDS011;3594;42.152;24.714;2023-03-24T17:53:37;5.63;;;3.28;;
7104;SDS011;3594;42.152;24.714;2023-03-24T17:56:02;5.72;;;3.40;;
7104;SDS011;3594;42.152;24.714;2023-03-24T17:58:31;2.97;;;2.60;;
7104;SDS011;3594;42.152;24.714;2023-03-24T18:01:00;4.75;;;3.08;;
7104;SDS011;3594;42.152;24.714;2023-03-24T18:03:26;5.40;;;3.45;;
7104;SDS011;3594;42.152;24.714;2023-03-24T18:05:54;7.25;;;3.35;;
7104;SDS011;3594;42.152;24.714;2023-03-24T18:08:19;5.93;;;3.92;;
7104;SDS011;3594;42.152;24.714;2023-03-24T18:10:45;5.80;;;3.55;;
7104;SDS011;3594;42.152;24.714;2023-03-24T18:13:10;7.35;;;4.05;;
7104;SDS011;3594;42.152;24.714;2023-03-24T18:15:39;6.75;;;3.58;;
7104;SDS011;3594;42.152;24.714;2023-03-24T18:18:05;6.85;;;4.20;;